Wetterstation Oberdrees
Wetterdaten: aktuell Sonntag, 16.06.2024 02:35
Datum Zeit Temp. A. Feuchte A. Luftdruck Regen Wind Richtung Richtung Taupunkt Windchill Windben
16.06.2024 02:35 13,0 C 78 % 1008,6 hPa 0,0 l/m 0,0 km/h (0 Bft) SW 218 9,3 C 13,0 C 0,0 km/h (0 Bft)
16.06.2024 02:30 13,1 C 78 % 1008,7 hPa 0,0 l/m 0,0 km/h (0 Bft) SW 218 9,4 C 13,1 C 0,0 km/h (0 Bft)
16.06.2024 02:25 13,1 C 78 % 1008,7 hPa 0,0 l/m 0,0 km/h (0 Bft) SW 218 9,4 C 13,1 C 0,0 km/h (0 Bft)
16.06.2024 02:20 13,2 C 77 % 1008,6 hPa 0,0 l/m 0,0 km/h (0 Bft) SW 218 9,3 C 13,2 C 0,0 km/h (0 Bft)
16.06.2024 02:15 13,4 C 76 % 1008,7 hPa 0,0 l/m 0,0 km/h (0 Bft) SW 218 9,3 C 13,4 C 0,0 km/h (0 Bft)
16.06.2024 02:10 13,5 C 76 % 1008,8 hPa 0,0 l/m 0,0 km/h (0 Bft) SW 218 9,4 C 13,5 C 0,0 km/h (0 Bft)
16.06.2024 02:05 13,6 C 76 % 1008,9 hPa 0,0 l/m 0,0 km/h (0 Bft) SW 218 9,4 C 13,6 C 0,0 km/h (0 Bft)
16.06.2024 02:00 13,8 C 76 % 1008,8 hPa 0,0 l/m 0,0 km/h (0 Bft) SW 218 9,6 C 13,8 C 0,0 km/h (0 Bft)
16.06.2024 01:55 13,9 C 76 % 1008,9 hPa 0,0 l/m 0,0 km/h (0 Bft) SW 218 9,7 C 13,9 C 0,0 km/h (0 Bft)
16.06.2024 01:50 14,0 C 75 % 1008,9 hPa 0,0 l/m 0,0 km/h (0 Bft) SW 218 9,6 C 14,0 C 0,0 km/h (0 Bft)
16.06.2024 01:45 14,0 C 75 % 1009,0 hPa 0,0 l/m 0,0 km/h (0 Bft) SW 218 9,6 C 14,0 C 0,0 km/h (0 Bft)
16.06.2024 01:40 14,1 C 74 % 1009,0 hPa 0,0 l/m 0,0 km/h (0 Bft) SW 218 9,5 C 14,1 C 0,0 km/h (0 Bft)
16.06.2024 01:35 14,1 C 74 % 1009,1 hPa 0,0 l/m 0,0 km/h (0 Bft) SW 218 9,5 C 14,1 C 0,0 km/h (0 Bft)
16.06.2024 01:30 14,1 C 74 % 1009,1 hPa 0,0 l/m 0,0 km/h (0 Bft) SW 218 9,5 C 14,1 C 0,0 km/h (0 Bft)
16.06.2024 01:25 14,1 C 75 % 1009,2 hPa 0,0 l/m 0,0 km/h (0 Bft) SW 218 9,7 C 14,1 C 0,0 km/h (0 Bft)
16.06.2024 01:20 14,2 C 75 % 1009,3 hPa 0,0 l/m 0,0 km/h (0 Bft) SW 218 9,8 C 14,2 C 0,0 km/h (0 Bft)
16.06.2024 01:15 14,2 C 74 % 1009,2 hPa 0,0 l/m 0,0 km/h (0 Bft) SW 218 9,6 C 14,2 C 0,0 km/h (0 Bft)
16.06.2024 01:10 14,3 C 74 % 1009,2 hPa 0,0 l/m 0,0 km/h (0 Bft) SW 218 9,7 C 14,3 C 0,0 km/h (0 Bft)
16.06.2024 01:05 14,3 C 73 % 1009,3 hPa 0,0 l/m 0,0 km/h (0 Bft) SW 218 9,5 C 14,3 C 0,0 km/h (0 Bft)
16.06.2024 01:00 14,4 C 73 % 1009,3 hPa 0,0 l/m 0,0 km/h (0 Bft) SW 218 9,6 C 14,4 C 0,0 km/h (0 Bft)
16.06.2024 00:55 14,4 C 72 % 1009,4 hPa 0,0 l/m 0,0 km/h (0 Bft) SW 218 9,4 C 14,4 C 0,0 km/h (0 Bft)
16.06.2024 00:50 14,6 C 72 % 1009,5 hPa 0,0 l/m 0,0 km/h (0 Bft) SW 218 9,6 C 14,6 C 0,0 km/h (0 Bft)
16.06.2024 00:45 14,7 C 71 % 1009,5 hPa 0,0 l/m 1,0 km/h (0 Bft) SW 218 9,5 C 14,7 C 3,2 km/h (1 Bft)
16.06.2024 00:40 14,8 C 70 % 1009,4 hPa 0,0 l/m 0,9 km/h (0 Bft) SW 218 9,4 C 14,8 C 3,2 km/h (1 Bft)
16.06.2024 00:35 14,9 C 69 % 1009,4 hPa 0,0 l/m 1,6 km/h (1 Bft) SW 219 9,3 C 14,9 C 4,8 km/h (1 Bft)
16.06.2024 00:30 15,0 C 68 % 1009,5 hPa 0,0 l/m 0,7 km/h (0 Bft) SW 225 9,1 C 15,0 C 3,2 km/h (1 Bft)
16.06.2024 00:25 15,1 C 68 % 1009,5 hPa 0,0 l/m 1,8 km/h (1 Bft) SW 226 9,2 C 15,1 C 6,4 km/h (2 Bft)
16.06.2024 00:20 15,2 C 68 % 1009,4 hPa 0,0 l/m 1,0 km/h (0 Bft) SW 227 9,3 C 15,2 C 3,2 km/h (1 Bft)
16.06.2024 00:15 15,3 C 67 % 1009,4 hPa 0,0 l/m 3,2 km/h (1 Bft) SW 227 9,2 C 15,3 C 6,4 km/h (2 Bft)
16.06.2024 00:10 15,3 C 67 % 1009,4 hPa 0,0 l/m 2,5 km/h (1 Bft) SW 230 9,2 C 15,3 C 6,4 km/h (2 Bft)
16.06.2024 00:05 15,4 C 67 % 1009,4 hPa 0,0 l/m 1,4 km/h (1 Bft) SW 233 9,3 C 15,4 C 4,8 km/h (1 Bft)
16.06.2024 00:00 15,4 C 67 % 1009,4 hPa 0,0 l/m 1,4 km/h (1 Bft) SW 234 9,3 C 15,4 C 4,8 km/h (1 Bft)
15.06.2024 23:55 15,4 C 67 % 1009,5 hPa 0,0 l/m 2,8 km/h (1 Bft) SW 234 9,3 C 15,4 C 9,7 km/h (2 Bft)
15.06.2024 23:50 15,5 C 67 % 1009,4 hPa 0,0 l/m 2,1 km/h (1 Bft) W-SW 252 9,4 C 15,5 C 6,4 km/h (2 Bft)
15.06.2024 23:45 15,5 C 67 % 1009,5 hPa 0,0 l/m 3,1 km/h (1 Bft) W-SW 255 9,4 C 15,5 C 8,0 km/h (2 Bft)
15.06.2024 23:40 15,6 C 66 % 1009,5 hPa 0,0 l/m 3,9 km/h (1 Bft) SW 227 9,3 C 15,6 C 8,0 km/h (2 Bft)
15.06.2024 23:35 15,6 C 66 % 1009,6 hPa 0,0 l/m 4,5 km/h (1 Bft) SW 227 9,3 C 15,6 C 12,9 km/h (3 Bft)
15.06.2024 23:30 15,6 C 66 % 1009,5 hPa 0,0 l/m 3,8 km/h (1 Bft) SW 228 9,3 C 15,6 C 6,4 km/h (2 Bft)
15.06.2024 23:25 15,7 C 65 % 1009,5 hPa 0,0 l/m 3,4 km/h (1 Bft) SW 227 9,1 C 15,7 C 8,0 km/h (2 Bft)
15.06.2024 23:20 15,8 C 65 % 1009,4 hPa 0,0 l/m 3,0 km/h (1 Bft) SW 221 9,2 C 15,8 C 8,0 km/h (2 Bft)
15.06.2024 23:15 15,8 C 65 % 1009,4 hPa 0,0 l/m 3,9 km/h (1 Bft) SW 217 9,2 C 15,8 C 9,7 km/h (2 Bft)
15.06.2024 23:10 15,8 C 65 % 1009,5 hPa 0,0 l/m 1,8 km/h (1 Bft) SW 225 9,2 C 15,8 C 4,8 km/h (1 Bft)
15.06.2024 23:05 15,9 C 64 % 1009,4 hPa 0,0 l/m 2,4 km/h (1 Bft) SW 225 9,1 C 15,9 C 6,4 km/h (2 Bft)
15.06.2024 23:00 15,9 C 64 % 1009,5 hPa 0,0 l/m 4,8 km/h (1 Bft) SW 225 9,1 C 15,9 C 11,3 km/h (2 Bft)
15.06.2024 22:55 15,9 C 64 % 1009,5 hPa 0,0 l/m 2,5 km/h (1 Bft) W-SW 240 9,1 C 15,9 C 8,0 km/h (2 Bft)
15.06.2024 22:50 16,0 C 63 % 1009,3 hPa 0,0 l/m 5,0 km/h (1 Bft) W-SW 241 9,0 C 16,0 C 12,9 km/h (3 Bft)
15.06.2024 22:45 16,1 C 63 % 1009,4 hPa 0,0 l/m 5,7 km/h (2 Bft) SW 227 9,1 C 16,1 C 14,5 km/h (3 Bft)
15.06.2024 22:40 16,1 C 64 % 1009,4 hPa 0,0 l/m 5,1 km/h (1 Bft) W-SW 242 9,3 C 16,1 C 11,3 km/h (2 Bft)
15.06.2024 22:35 16,1 C 63 % 1009,4 hPa 0,0 l/m 6,4 km/h (2 Bft) W-SW 246 9,1 C 16,1 C 12,9 km/h (3 Bft)
15.06.2024 22:30 16,1 C 63 % 1009,4 hPa 0,0 l/m 5,6 km/h (2 Bft) W-SW 242 9,1 C 16,1 C 14,5 km/h (3 Bft)
15.06.2024 22:25 16,2 C 63 % 1009,3 hPa 0,0 l/m 5,6 km/h (2 Bft) W-SW 248 9,1 C 16,2 C 14,5 km/h (3 Bft)
15.06.2024 22:20 16,2 C 63 % 1009,3 hPa 0,0 l/m 5,7 km/h (2 Bft) W-SW 239 9,1 C 16,2 C 14,5 km/h (3 Bft)
15.06.2024 22:15 16,2 C 63 % 1009,1 hPa 0,0 l/m 3,5 km/h (1 Bft) W-SW 249 9,1 C 16,2 C 9,7 km/h (2 Bft)
15.06.2024 22:10 16,2 C 62 % 1009,2 hPa 0,0 l/m 4,1 km/h (1 Bft) W-SW 244 8,9 C 16,2 C 11,3 km/h (2 Bft)
15.06.2024 22:05 16,3 C 62 % 1009,1 hPa 0,0 l/m 3,5 km/h (1 Bft) SW 229 9,0 C 16,3 C 8,0 km/h (2 Bft)
15.06.2024 22:00 16,3 C 62 % 1009,0 hPa 0,0 l/m 2,7 km/h (1 Bft) SW 221 9,0 C 16,3 C 8,0 km/h (2 Bft)
15.06.2024 21:55 16,3 C 62 % 1009,0 hPa 0,0 l/m 3,9 km/h (1 Bft) SW 227 9,0 C 16,3 C 9,7 km/h (2 Bft)
15.06.2024 21:50 16,3 C 62 % 1008,9 hPa 0,0 l/m 2,9 km/h (1 Bft) SW 215 9,0 C 16,3 C 8,0 km/h (2 Bft)
15.06.2024 21:45 16,3 C 62 % 1008,9 hPa 0,0 l/m 4,0 km/h (1 Bft) S-SW 211 9,0 C 16,3 C 8,0 km/h (2 Bft)
15.06.2024 21:40 16,4 C 62 % 1008,8 hPa 0,0 l/m 2,4 km/h (1 Bft) SW 230 9,1 C 16,4 C 6,4 km/h (2 Bft)
15.06.2024 21:35 16,5 C 62 % 1008,8 hPa 0,0 l/m 2,7 km/h (1 Bft) SW 232 9,2 C 16,5 C 8,0 km/h (2 Bft)
15.06.2024 21:30 16,6 C 61 % 1008,8 hPa 0,0 l/m 3,2 km/h (1 Bft) SW 232 9,0 C 16,6 C 8,0 km/h (2 Bft)
15.06.2024 21:25 16,6 C 60 % 1008,8 hPa 0,0 l/m 3,1 km/h (1 Bft) S-SW 205 8,8 C 16,6 C 9,7 km/h (2 Bft)
15.06.2024 21:20 16,7 C 60 % 1008,8 hPa 0,0 l/m 2,5 km/h (1 Bft) S-SW 206 8,9 C 16,7 C 6,4 km/h (2 Bft)
15.06.2024 21:15 16,7 C 60 % 1008,7 hPa 0,0 l/m 2,1 km/h (1 Bft) S-SW 205 8,9 C 16,7 C 4,8 km/h (1 Bft)
15.06.2024 21:10 16,8 C 60 % 1008,7 hPa 0,0 l/m 3,1 km/h (1 Bft) S-SW 205 9,0 C 16,8 C 8,0 km/h (2 Bft)
15.06.2024 21:05 16,8 C 60 % 1008,7 hPa 0,0 l/m 3,3 km/h (1 Bft) SW 214 9,0 C 16,8 C 9,7 km/h (2 Bft)
15.06.2024 21:00 16,8 C 59 % 1008,7 hPa 0,0 l/m 3,4 km/h (1 Bft) SW 217 8,7 C 16,8 C 6,4 km/h (2 Bft)
15.06.2024 20:55 16,9 C 59 % 1008,8 hPa 0,0 l/m 2,5 km/h (1 Bft) SW 220 8,8 C 16,9 C 8,0 km/h (2 Bft)
15.06.2024 20:50 17,0 C 58 % 1008,8 hPa 0,0 l/m 3,1 km/h (1 Bft) SW 217 8,7 C 17,0 C 8,0 km/h (2 Bft)
15.06.2024 20:45 17,1 C 57 % 1008,7 hPa 0,0 l/m 5,5 km/h (2 Bft) S-SW 212 8,5 C 17,1 C 14,5 km/h (3 Bft)
15.06.2024 20:40 17,1 C 57 % 1008,7 hPa 0,0 l/m 2,9 km/h (1 Bft) SW 229 8,5 C 17,1 C 11,3 km/h (2 Bft)
15.06.2024 20:35 17,2 C 56 % 1008,8 hPa 0,0 l/m 3,2 km/h (1 Bft) SW 230 8,3 C 17,2 C 8,0 km/h (2 Bft)
15.06.2024 20:30 17,2 C 56 % 1008,9 hPa 0,0 l/m 4,3 km/h (1 Bft) SW 232 8,3 C 17,2 C 11,3 km/h (2 Bft)
15.06.2024 20:25 17,2 C 55 % 1008,8 hPa 0,0 l/m 4,2 km/h (1 Bft) SW 221 8,1 C 17,2 C 11,3 km/h (2 Bft)
15.06.2024 20:20 17,3 C 55 % 1008,9 hPa 0,0 l/m 4,8 km/h (1 Bft) W 259 8,2 C 17,3 C 16,1 km/h (3 Bft)
15.06.2024 20:15 17,3 C 54 % 1008,9 hPa 0,0 l/m 7,1 km/h (2 Bft) W-SW 252 7,9 C 17,0 C 16,1 km/h (3 Bft)
15.06.2024 20:10 17,4 C 54 % 1008,9 hPa 0,0 l/m 7,4 km/h (2 Bft) W-SW 243 8,0 C 16,9 C 22,5 km/h (4 Bft)
15.06.2024 20:05 17,4 C 54 % 1008,8 hPa 0,0 l/m 5,4 km/h (2 Bft) W-SW 246 8,0 C 17,4 C 14,5 km/h (3 Bft)
15.06.2024 20:00 17,4 C 54 % 1008,9 hPa 0,0 l/m 4,6 km/h (1 Bft) SW 230 8,0 C 17,4 C 11,3 km/h (2 Bft)
15.06.2024 19:55 17,5 C 54 % 1008,8 hPa 0,0 l/m 5,2 km/h (1 Bft) W 259 8,1 C 17,5 C 12,9 km/h (3 Bft)
15.06.2024 19:50 17,5 C 54 % 1008,8 hPa 0,0 l/m 4,0 km/h (1 Bft) W 265 8,1 C 17,5 C 11,3 km/h (2 Bft)
15.06.2024 19:45 17,6 C 53 % 1008,8 hPa 0,0 l/m 6,6 km/h (2 Bft) W-SW 243 7,9 C 17,5 C 22,5 km/h (4 Bft)
15.06.2024 19:40 17,6 C 53 % 1008,8 hPa 0,0 l/m 7,3 km/h (2 Bft) SW 229 7,9 C 17,2 C 16,1 km/h (3 Bft)
15.06.2024 19:35 17,7 C 52 % 1008,9 hPa 0,0 l/m 11,8 km/h (2 Bft) W-SW 256 7,7 C 15,4 C 22,5 km/h (4 Bft)
15.06.2024 19:30 17,8 C 53 % 1008,9 hPa 0,0 l/m 11,2 km/h (2 Bft) W-SW 243 8,1 C 15,8 C 24,1 km/h (4 Bft)
15.06.2024 19:25 17,9 C 52 % 1008,9 hPa 0,0 l/m 10,0 km/h (2 Bft) W-SW 252 7,9 C 16,3 C 29,0 km/h (5 Bft)
15.06.2024 19:20 18,1 C 51 % 1008,9 hPa 0,0 l/m 10,3 km/h (2 Bft) W-SW 250 7,8 C 16,4 C 22,5 km/h (4 Bft)
15.06.2024 19:15 18,2 C 51 % 1008,8 hPa 0,0 l/m 11,7 km/h (2 Bft) W-SW 238 7,9 C 16,1 C 24,1 km/h (4 Bft)
15.06.2024 19:10 18,3 C 50 % 1008,7 hPa 0,0 l/m 7,4 km/h (2 Bft) SW 225 7,7 C 17,8 C 14,5 km/h (3 Bft)
15.06.2024 19:05 18,3 C 49 % 1008,7 hPa 0,0 l/m 8,6 km/h (2 Bft) S-SW 207 7,4 C 17,3 C 24,1 km/h (4 Bft)
15.06.2024 19:00 18,4 C 48 % 1008,7 hPa 0,0 l/m 11,0 km/h (2 Bft) W-SW 248 7,2 C 16,5 C 22,5 km/h (4 Bft)
15.06.2024 18:55 18,7 C 48 % 1008,5 hPa 0,0 l/m 10,4 km/h (2 Bft) W-SW 240 7,5 C 17,1 C 27,4 km/h (5 Bft)
15.06.2024 18:50 18,8 C 48 % 1008,6 hPa 0,0 l/m 5,6 km/h (2 Bft) SW 236 7,6 C 18,8 C 11,3 km/h (2 Bft)
15.06.2024 18:45 18,9 C 47 % 1008,5 hPa 0,0 l/m 9,1 km/h (2 Bft) W-SW 241 7,3 C 17,8 C 25,7 km/h (4 Bft)
15.06.2024 18:40 19,0 C 46 % 1008,5 hPa 0,0 l/m 9,8 km/h (2 Bft) S-SW 193 7,1 C 17,6 C 19,3 km/h (3 Bft)
15.06.2024 18:35 19,2 C 46 % 1008,5 hPa 0,0 l/m 11,3 km/h (2 Bft) S-SW 205 7,3 C 17,3 C 22,5 km/h (4 Bft)
15.06.2024 18:30 19,6 C 45 % 1008,4 hPa 0,0 l/m 10,1 km/h (2 Bft) S-SW 205 7,3 C 18,2 C 16,1 km/h (3 Bft)
15.06.2024 18:25 19,8 C 45 % 1008,4 hPa 0,0 l/m 8,9 km/h (2 Bft) SW 225 7,5 C 18,8 C 29,0 km/h (5 Bft)
15.06.2024 18:20 20,2 C 44 % 1008,4 hPa 0,0 l/m 9,1 km/h (2 Bft) S 191 7,6 C 19,2 C 16,1 km/h (3 Bft)
15.06.2024 18:15 20,5 C 44 % 1008,3 hPa 0,0 l/m 10,5 km/h (2 Bft) W-SW 256 7,8 C 19,0 C 19,3 km/h (3 Bft)
15.06.2024 18:10 20,4 C 45 % 1008,4 hPa 0,0 l/m 11,1 km/h (2 Bft) W-SW 240 8,1 C 18,7 C 24,1 km/h (4 Bft)
15.06.2024 18:05 20,4 C 44 % 1008,3 hPa 0,0 l/m 10,6 km/h (2 Bft) SW 229 7,7 C 18,9 C 20,9 km/h (4 Bft)
15.06.2024 18:00 20,3 C 46 % 1008,3 hPa 0,0 l/m 8,0 km/h (2 Bft) W-SW 244 8,3 C 19,7 C 20,9 km/h (4 Bft)
15.06.2024 17:55 20,3 C 45 % 1008,2 hPa 0,0 l/m 6,9 km/h (2 Bft) W-SW 255 8,0 C 20,1 C 16,1 km/h (3 Bft)
15.06.2024 17:50 20,4 C 45 % 1008,2 hPa 0,0 l/m 7,3 km/h (2 Bft) W-SW 239 8,1 C 20,0 C 16,1 km/h (3 Bft)
15.06.2024 17:45 20,2 C 45 % 1008,3 hPa 0,0 l/m 9,9 km/h (2 Bft) W 263 7,9 C 18,9 C 20,9 km/h (4 Bft)
15.06.2024 17:40 20,1 C 46 % 1008,3 hPa 0,0 l/m 8,4 km/h (2 Bft) S 190 8,1 C 19,3 C 17,7 km/h (3 Bft)
15.06.2024 17:35 19,9 C 46 % 1008,3 hPa 0,0 l/m 9,0 km/h (2 Bft) SW 232 7,9 C 18,9 C 19,3 km/h (3 Bft)
15.06.2024 17:30 20,0 C 46 % 1008,3 hPa 0,0 l/m 9,8 km/h (2 Bft) W 269 8,0 C 18,7 C 17,7 km/h (3 Bft)
15.06.2024 17:25 20,3 C 46 % 1008,2 hPa 0,0 l/m 7,2 km/h (2 Bft) S-SW 212 8,3 C 20,0 C 22,5 km/h (4 Bft)
15.06.2024 17:20 20,1 C 46 % 1008,2 hPa 0,0 l/m 10,0 km/h (2 Bft) W-SW 250 8,1 C 18,8 C 25,7 km/h (4 Bft)
15.06.2024 17:15 20,0 C 46 % 1008,2 hPa 0,0 l/m 14,3 km/h (3 Bft) SW 232 8,0 C 17,4 C 25,7 km/h (4 Bft)
15.06.2024 17:10 20,3 C 47 % 1008,3 hPa 0,0 l/m 12,2 km/h (2 Bft) S 176 8,6 C 18,3 C 22,5 km/h (4 Bft)
15.06.2024 17:05 20,3 C 46 % 1008,3 hPa 0,0 l/m 11,5 km/h (2 Bft) S-SW 208 8,3 C 18,5 C 25,7 km/h (4 Bft)
15.06.2024 17:00 20,2 C 44 % 1008,3 hPa 0,0 l/m 12,1 km/h (2 Bft) S-SW 204 7,6 C 18,2 C 29,0 km/h (5 Bft)
15.06.2024 16:55 20,1 C 47 % 1008,2 hPa 0,0 l/m 9,4 km/h (2 Bft) S-SW 213 8,4 C 19,0 C 17,7 km/h (3 Bft)
15.06.2024 16:50 20,0 C 47 % 1008,3 hPa 0,0 l/m 10,3 km/h (2 Bft) SW 235 8,3 C 18,5 C 24,1 km/h (4 Bft)
15.06.2024 16:45 20,0 C 47 % 1008,3 hPa 0,0 l/m 10,7 km/h (2 Bft) SW 217 8,3 C 18,4 C 20,9 km/h (4 Bft)
15.06.2024 16:40 19,6 C 48 % 1008,2 hPa 0,0 l/m 9,6 km/h (2 Bft) W-SW 240 8,3 C 18,3 C 17,7 km/h (3 Bft)
15.06.2024 16:35 19,3 C 51 % 1008,4 hPa 0,0 l/m 10,5 km/h (2 Bft) SW 219 8,9 C 17,7 C 22,5 km/h (4 Bft)
15.06.2024 16:30 19,5 C 48 % 1008,3 hPa 0,0 l/m 11,4 km/h (2 Bft) W 280 8,2 C 17,6 C 19,3 km/h (3 Bft)
15.06.2024 16:25 19,6 C 48 % 1008,3 hPa 0,0 l/m 11,0 km/h (2 Bft) W-SW 258 8,3 C 17,9 C 24,1 km/h (4 Bft)
15.06.2024 16:20 19,6 C 48 % 1008,3 hPa 0,0 l/m 8,6 km/h (2 Bft) W-SW 253 8,3 C 18,7 C 19,3 km/h (3 Bft)
15.06.2024 16:15 19,7 C 48 % 1008,3 hPa 0,0 l/m 11,2 km/h (2 Bft) W-SW 243 8,4 C 17,9 C 24,1 km/h (4 Bft)
15.06.2024 16:10 19,6 C 48 % 1008,2 hPa 0,0 l/m 12,9 km/h (3 Bft) SW 235 8,3 C 17,3 C 22,5 km/h (4 Bft)
15.06.2024 16:05 19,7 C 47 % 1008,3 hPa 0,0 l/m 10,9 km/h (2 Bft) W-NW 290 8,1 C 18,0 C 24,1 km/h (4 Bft)
15.06.2024 16:00 19,3 C 47 % 1008,3 hPa 0,0 l/m 13,6 km/h (3 Bft) SW 222 7,7 C 16,8 C 30,6 km/h (5 Bft)
15.06.2024 15:55 19,3 C 48 % 1008,3 hPa 0,0 l/m 8,7 km/h (2 Bft) SW 229 8,0 C 18,3 C 19,3 km/h (3 Bft)
15.06.2024 15:50 19,6 C 47 % 1008,3 hPa 0,0 l/m 10,2 km/h (2 Bft) S 189 8,0 C 18,1 C 27,4 km/h (5 Bft)
15.06.2024 15:45 19,6 C 49 % 1008,3 hPa 0,0 l/m 8,8 km/h (2 Bft) W-SW 238 8,6 C 18,6 C 22,5 km/h (4 Bft)
15.06.2024 15:40 19,3 C 50 % 1008,3 hPa 0,0 l/m 13,4 km/h (3 Bft) W-NW 300 8,6 C 16,8 C 25,7 km/h (4 Bft)
15.06.2024 15:35 19,6 C 48 % 1008,2 hPa 0,0 l/m 11,5 km/h (2 Bft) SW 233 8,3 C 17,7 C 27,4 km/h (5 Bft)
15.06.2024 15:30 19,1 C 51 % 1008,3 hPa 0,0 l/m 10,6 km/h (2 Bft) S-SW 211 8,7 C 17,4 C 22,5 km/h (4 Bft)
15.06.2024 15:25 19,2 C 51 % 1008,3 hPa 0,0 l/m 8,6 km/h (2 Bft) W-SW 242 8,8 C 18,3 C 16,1 km/h (3 Bft)
15.06.2024 15:20 19,2 C 51 % 1008,3 hPa 0,0 l/m 12,1 km/h (2 Bft) W 278 8,8 C 17,1 C 24,1 km/h (4 Bft)
15.06.2024 15:15 19,3 C 52 % 1008,1 hPa 0,0 l/m 6,8 km/h (2 Bft) SW 232 9,2 C 19,1 C 17,7 km/h (3 Bft)
15.06.2024 15:10 19,1 C 52 % 1008,2 hPa 0,0 l/m 9,8 km/h (2 Bft) SW 222 9,0 C 17,7 C 19,3 km/h (3 Bft)
15.06.2024 15:05 19,2 C 50 % 1008,3 hPa 0,0 l/m 10,8 km/h (2 Bft) W-SW 242 8,5 C 17,5 C 22,5 km/h (4 Bft)
15.06.2024 15:00 19,3 C 50 % 1008,2 hPa 0,0 l/m 10,4 km/h (2 Bft) SW 229 8,6 C 17,7 C 22,5 km/h (4 Bft)
15.06.2024 14:55 18,9 C 50 % 1008,2 hPa 0,0 l/m 12,2 km/h (2 Bft) W-SW 243 8,2 C 16,7 C 25,7 km/h (4 Bft)
15.06.2024 14:50 18,6 C 50 % 1008,4 hPa 0,0 l/m 11,1 km/h (2 Bft) S 189 8,0 C 16,7 C 27,4 km/h (5 Bft)
15.06.2024 14:45 18,2 C 51 % 1008,3 hPa 0,0 l/m 11,2 km/h (2 Bft) SW 226 7,9 C 16,2 C 22,5 km/h (4 Bft)
15.06.2024 14:40 18,4 C 50 % 1008,5 hPa 0,0 l/m 13,5 km/h (3 Bft) SW 218 7,8 C 15,7 C 25,7 km/h (4 Bft)
15.06.2024 14:35 18,9 C 48 % 1008,4 hPa 0,0 l/m 14,5 km/h (3 Bft) W-SW 257 7,6 C 16,0 C 24,1 km/h (4 Bft)
15.06.2024 14:30 19,1 C 50 % 1008,3 hPa 0,0 l/m 16,9 km/h (3 Bft) W-SW 238 8,4 C 15,7 C 40,2 km/h (6 Bft)
15.06.2024 14:25 19,0 C 52 % 1008,4 hPa 0,0 l/m 8,2 km/h (2 Bft) W-SW 249 8,9 C 18,2 C 19,3 km/h (3 Bft)
15.06.2024 14:20 19,2 C 50 % 1008,3 hPa 0,0 l/m 12,9 km/h (3 Bft) W-SW 243 8,5 C 16,8 C 25,7 km/h (4 Bft)
15.06.2024 14:15 19,4 C 52 % 1008,5 hPa 0,0 l/m 13,8 km/h (3 Bft) W 269 9,3 C 16,8 C 24,1 km/h (4 Bft)
15.06.2024 14:10 19,3 C 52 % 1008,3 hPa 0,0 l/m 11,1 km/h (2 Bft) SW 228 9,2 C 17,5 C 25,7 km/h (4 Bft)
15.06.2024 14:05 19,1 C 53 % 1008,3 hPa 0,0 l/m 9,9 km/h (2 Bft) W-SW 249 9,3 C 17,7 C 20,9 km/h (4 Bft)
15.06.2024 14:00 18,9 C 50 % 1008,4 hPa 0,0 l/m 11,6 km/h (2 Bft) SW 234 8,2 C 16,9 C 22,5 km/h (4 Bft)
15.06.2024 13:55 18,9 C 54 % 1008,4 hPa 0,0 l/m 9,8 km/h (2 Bft) S-SW 208 9,4 C 17,5 C 20,9 km/h (4 Bft)
15.06.2024 13:50 18,6 C 53 % 1008,2 hPa 0,0 l/m 14,2 km/h (3 Bft) SW 231 8,8 C 15,8 C 27,4 km/h (5 Bft)
15.06.2024 13:45 18,4 C 51 % 1008,2 hPa 0,0 l/m 12,6 km/h (3 Bft) W-SW 242 8,1 C 16,0 C 19,3 km/h (3 Bft)
15.06.2024 13:40 18,3 C 53 % 1008,2 hPa 0,0 l/m 15,8 km/h (3 Bft) W 265 8,6 C 15,0 C 30,6 km/h (5 Bft)
15.06.2024 13:35 18,2 C 51 % 1008,2 hPa 0,0 l/m 12,7 km/h (3 Bft) SW 225 7,9 C 15,7 C 22,5 km/h (4 Bft)
15.06.2024 13:30 18,1 C 53 % 1008,2 hPa 0,0 l/m 12,0 km/h (2 Bft) SW 219 8,4 C 15,8 C 22,5 km/h (4 Bft)
15.06.2024 13:25 18,1 C 53 % 1008,2 hPa 0,0 l/m 11,7 km/h (2 Bft) S-SW 208 8,4 C 15,9 C 20,9 km/h (4 Bft)
15.06.2024 13:20 18,1 C 54 % 1008,1 hPa 0,0 l/m 13,0 km/h (3 Bft) W-SW 238 8,6 C 15,5 C 27,4 km/h (5 Bft)
15.06.2024 13:15 17,9 C 54 % 1008,1 hPa 0,2 l/m 14,7 km/h (3 Bft) W-NW 286 8,5 C 14,8 C 30,6 km/h (5 Bft)
15.06.2024 13:10 17,6 C 58 % 1008,1 hPa 0,0 l/m 12,5 km/h (2 Bft) SW 232 9,2 C 15,1 C 22,5 km/h (4 Bft)
15.06.2024 13:05 17,3 C 58 % 1008,1 hPa 0,0 l/m 14,2 km/h (3 Bft) SW 230 9,0 C 14,2 C 25,7 km/h (4 Bft)
15.06.2024 13:00 17,6 C 56 % 1008,1 hPa 0,0 l/m 12,8 km/h (3 Bft) SW 215 8,7 C 15,0 C 22,5 km/h (4 Bft)
15.06.2024 12:55 17,7 C 56 % 1008,1 hPa 0,0 l/m 12,7 km/h (3 Bft) W-NW 282 8,8 C 15,2 C 22,5 km/h (4 Bft)
15.06.2024 12:50 17,5 C 55 % 1008,1 hPa 0,0 l/m 14,0 km/h (3 Bft) W-SW 247 8,4 C 14,5 C 25,7 km/h (4 Bft)
15.06.2024 12:45 17,3 C 58 % 1008,1 hPa 0,0 l/m 11,4 km/h (2 Bft) W-SW 255 9,0 C 15,1 C 20,9 km/h (4 Bft)
15.06.2024 12:40 17,0 C 57 % 1008,1 hPa 0,0 l/m 17,1 km/h (3 Bft) W 269 8,4 C 13,0 C 29,0 km/h (5 Bft)
15.06.2024 12:35 17,1 C 56 % 1008,1 hPa 0,0 l/m 15,5 km/h (3 Bft) W-NW 290 8,3 C 13,6 C 32,2 km/h (5 Bft)
15.06.2024 12:30 16,7 C 57 % 1008,2 hPa 0,0 l/m 18,6 km/h (3 Bft) W-SW 242 8,1 C 12,3 C 24,1 km/h (4 Bft)
15.06.2024 12:25 16,5 C 58 % 1008,1 hPa 0,0 l/m 15,6 km/h (3 Bft) W-NW 286 8,2 C 12,8 C 29,0 km/h (5 Bft)
15.06.2024 12:20 16,7 C 57 % 1008,1 hPa 0,0 l/m 14,6 km/h (3 Bft) W 263 8,1 C 13,4 C 29,0 km/h (5 Bft)
15.06.2024 12:15 16,7 C 61 % 1008,0 hPa 0,0 l/m 12,9 km/h (3 Bft) W-NW 297 9,1 C 13,9 C 22,5 km/h (4 Bft)
15.06.2024 12:10 16,3 C 60 % 1008,0 hPa 0,0 l/m 12,6 km/h (3 Bft) W 274 8,5 C 13,6 C 27,4 km/h (5 Bft)
15.06.2024 12:05 16,2 C 61 % 1008,0 hPa 0,0 l/m 12,1 km/h (2 Bft) W 277 8,7 C 13,6 C 22,5 km/h (4 Bft)
15.06.2024 12:00 16,3 C 62 % 1007,9 hPa 0,0 l/m 11,9 km/h (2 Bft) W-NW 288 9,0 C 13,8 C 22,5 km/h (4 Bft)
15.06.2024 11:55 16,2 C 61 % 1007,9 hPa 0,0 l/m 15,0 km/h (3 Bft) W 280 8,7 C 12,6 C 30,6 km/h (5 Bft)
15.06.2024 11:50 16,3 C 61 % 1007,7 hPa 0,0 l/m 18,0 km/h (3 Bft) SW 236 8,8 C 11,9 C 32,2 km/h (5 Bft)
15.06.2024 11:45 16,3 C 61 % 1007,7 hPa 0,0 l/m 16,2 km/h (3 Bft) W 265 8,8 C 12,4 C 29,0 km/h (5 Bft)
15.06.2024 11:40 16,3 C 60 % 1007,8 hPa 0,0 l/m 14,8 km/h (3 Bft) SW 223 8,5 C 12,8 C 30,6 km/h (5 Bft)
15.06.2024 11:35 16,2 C 62 % 1007,7 hPa 0,0 l/m 15,9 km/h (3 Bft) W-NW 284 8,9 C 12,4 C 27,4 km/h (5 Bft)
15.06.2024 11:30 16,0 C 63 % 1007,8 hPa 0,0 l/m 15,4 km/h (3 Bft) NW 309 9,0 C 12,3 C 30,6 km/h (5 Bft)
15.06.2024 11:25 15,6 C 64 % 1007,8 hPa 0,0 l/m 13,5 km/h (3 Bft) W-SW 253 8,8 C 12,4 C 24,1 km/h (4 Bft)
15.06.2024 11:20 15,4 C 65 % 1007,7 hPa 0,0 l/m 13,6 km/h (3 Bft) W-SW 258 8,9 C 12,1 C 25,7 km/h (4 Bft)
15.06.2024 11:15 15,2 C 64 % 1007,7 hPa 0,0 l/m 12,2 km/h (2 Bft) W 263 8,4 C 12,4 C 19,3 km/h (3 Bft)
15.06.2024 11:10 15,2 C 66 % 1007,8 hPa 0,0 l/m 14,1 km/h (3 Bft) W 265 8,9 C 11,7 C 22,5 km/h (4 Bft)
15.06.2024 11:05 14,9 C 68 % 1007,7 hPa 0,0 l/m 10,0 km/h (2 Bft) W 259 9,0 C 13,0 C 22,5 km/h (4 Bft)
15.06.2024 11:00 14,8 C 66 % 1007,6 hPa 0,0 l/m 15,2 km/h (3 Bft) W-SW 248 8,5 C 10,9 C 20,9 km/h (4 Bft)
15.06.2024 10:55 15,1 C 65 % 1007,6 hPa 0,0 l/m 12,5 km/h (2 Bft) NW 306 8,6 C 12,2 C 25,7 km/h (4 Bft)
15.06.2024 10:50 15,3 C 65 % 1007,6 hPa 0,0 l/m 16,1 km/h (3 Bft) W 274 8,8 C 11,2 C 27,4 km/h (5 Bft)
15.06.2024 10:45 15,6 C 64 % 1007,5 hPa 0,0 l/m 16,6 km/h (3 Bft) W 268 8,8 C 11,4 C 29,0 km/h (5 Bft)
15.06.2024 10:40 15,8 C 65 % 1007,3 hPa 0,0 l/m 12,4 km/h (2 Bft) SW 231 9,2 C 13,0 C 24,1 km/h (4 Bft)
15.06.2024 10:35 15,6 C 66 % 1007,3 hPa 0,0 l/m 15,8 km/h (3 Bft) W-SW 238 9,3 C 11,7 C 27,4 km/h (5 Bft)
15.06.2024 10:30 15,4 C 66 % 1007,2 hPa 0,0 l/m 14,1 km/h (3 Bft) W 279 9,1 C 12,0 C 25,7 km/h (4 Bft)
15.06.2024 10:25 15,2 C 65 % 1007,3 hPa 0,0 l/m 17,6 km/h (3 Bft) W 275 8,7 C 10,6 C 40,2 km/h (6 Bft)
15.06.2024 10:20 15,2 C 65 % 1007,0 hPa 0,0 l/m 17,7 km/h (3 Bft) W 279 8,7 C 10,6 C 32,2 km/h (5 Bft)
15.06.2024 10:15 15,2 C 66 % 1007,1 hPa 0,0 l/m 18,1 km/h (3 Bft) W-SW 253 8,9 C 10,5 C 30,6 km/h (5 Bft)
15.06.2024 10:10 15,3 C 64 % 1006,9 hPa 0,0 l/m 14,0 km/h (3 Bft) W-NW 292 8,5 C 11,9 C 27,4 km/h (5 Bft)
15.06.2024 10:05 15,3 C 66 % 1006,9 hPa 0,0 l/m 15,4 km/h (3 Bft) W-SW 251 9,0 C 11,4 C 33,8 km/h (5 Bft)
15.06.2024 10:00 15,3 C 67 % 1006,9 hPa 0,0 l/m 13,7 km/h (3 Bft) W-SW 240 9,2 C 12,0 C 25,7 km/h (4 Bft)
15.06.2024 09:55 15,3 C 69 % 1006,8 hPa 0,0 l/m 14,2 km/h (3 Bft) SW 232 9,6 C 11,8 C 24,1 km/h (4 Bft)
15.06.2024 09:50 15,2 C 67 % 1006,7 hPa 0,0 l/m 15,8 km/h (3 Bft) W-SW 242 9,1 C 11,2 C 29,0 km/h (5 Bft)
15.06.2024 09:45 15,3 C 67 % 1006,6 hPa 0,0 l/m 14,5 km/h (3 Bft) W-NW 284 9,2 C 11,7 C 32,2 km/h (5 Bft)
15.06.2024 09:40 15,3 C 65 % 1006,6 hPa 0,2 l/m 13,8 km/h (3 Bft) W 278 8,8 C 12,0 C 24,1 km/h (4 Bft)
15.06.2024 09:35 15,2 C 68 % 1006,4 hPa 0,0 l/m 12,0 km/h (2 Bft) W-SW 257 9,3 C 12,5 C 22,5 km/h (4 Bft)
15.06.2024 09:30 14,9 C 68 % 1006,3 hPa 0,0 l/m 13,8 km/h (3 Bft) W-SW 246 9,0 C 11,5 C 29,0 km/h (5 Bft)
15.06.2024 09:25 14,8 C 71 % 1006,2 hPa 0,0 l/m 13,3 km/h (3 Bft) SW 236 9,6 C 11,5 C 29,0 km/h (5 Bft)
15.06.2024 09:20 14,6 C 71 % 1006,2 hPa 0,0 l/m 9,4 km/h (2 Bft) W-SW 243 9,4 C 13,0 C 22,5 km/h (4 Bft)
15.06.2024 09:15 14,3 C 73 % 1006,2 hPa 0,0 l/m 10,1 km/h (2 Bft) SW 229 9,5 C 12,3 C 25,7 km/h (4 Bft)
15.06.2024 09:10 14,0 C 74 % 1006,3 hPa 0,0 l/m 11,4 km/h (2 Bft) SW 235 9,4 C 11,4 C 20,9 km/h (4 Bft)
15.06.2024 09:05 13,8 C 74 % 1006,3 hPa 0,0 l/m 13,5 km/h (3 Bft) W 265 9,2 C 10,3 C 25,7 km/h (4 Bft)
15.06.2024 09:00 14,1 C 73 % 1006,3 hPa 0,0 l/m 14,7 km/h (3 Bft) W-SW 250 9,3 C 10,2 C 25,7 km/h (4 Bft)
15.06.2024 08:55 14,4 C 74 % 1006,1 hPa 0,0 l/m 14,4 km/h (3 Bft) W 271 9,8 C 10,7 C 24,1 km/h (4 Bft)
15.06.2024 08:50 14,9 C 74 % 1006,0 hPa 0,0 l/m 10,3 km/h (2 Bft) W 274 10,3 C 12,9 C 27,4 km/h (5 Bft)
15.06.2024 08:45 15,0 C 73 % 1005,7 hPa 0,0 l/m 15,8 km/h (3 Bft) W 277 10,2 C 10,9 C 32,2 km/h (5 Bft)
15.06.2024 08:40 15,0 C 74 % 1005,9 hPa 0,0 l/m 13,8 km/h (3 Bft) S-SW 199 10,4 C 11,6 C 29,0 km/h (5 Bft)
15.06.2024 08:35 14,8 C 74 % 1005,7 hPa 0,0 l/m 13,0 km/h (3 Bft) W-NW 284 10,2 C 11,7 C 27,4 km/h (5 Bft)
15.06.2024 08:30 15,0 C 75 % 1005,6 hPa 0,0 l/m 13,4 km/h (3 Bft) W 265 10,6 C 11,7 C 29,0 km/h (5 Bft)
15.06.2024 08:25 14,9 C 76 % 1005,4 hPa 0,0 l/m 12,4 km/h (2 Bft) W-NW 282 10,7 C 12,0 C 25,7 km/h (4 Bft)
15.06.2024 08:20 14,8 C 76 % 1005,4 hPa 0,0 l/m 13,4 km/h (3 Bft) W-NW 284 10,6 C 11,5 C 30,6 km/h (5 Bft)
15.06.2024 08:15 14,8 C 76 % 1005,2 hPa 0,0 l/m 13,3 km/h (3 Bft) SW 232 10,6 C 11,5 C 25,7 km/h (4 Bft)
15.06.2024 08:10 14,8 C 76 % 1005,2 hPa 0,0 l/m 14,9 km/h (3 Bft) W-SW 244 10,6 C 11,0 C 25,7 km/h (4 Bft)
15.06.2024 08:05 14,7 C 78 % 1005,1 hPa 0,0 l/m 12,2 km/h (2 Bft) W-NW 284 10,9 C 11,8 C 29,0 km/h (5 Bft)
15.06.2024 08:00 14,6 C 78 % 1004,9 hPa 0,0 l/m 9,9 km/h (2 Bft) W 261 10,8 C 12,7 C 19,3 km/h (3 Bft)
15.06.2024 07:55 14,4 C 80 % 1004,9 hPa 0,0 l/m 7,8 km/h (2 Bft) W-SW 252 11,0 C 13,6 C 17,7 km/h (3 Bft)
15.06.2024 07:50 14,3 C 79 % 1004,7 hPa 0,0 l/m 9,7 km/h (2 Bft) SW 231 10,7 C 12,5 C 20,9 km/h (4 Bft)
15.06.2024 07:45 14,2 C 79 % 1004,7 hPa 0,0 l/m 10,3 km/h (2 Bft) W 263 10,6 C 12,1 C 27,4 km/h (5 Bft)
15.06.2024 07:40 14,2 C 81 % 1004,6 hPa 0,0 l/m 8,7 km/h (2 Bft) SW 232 11,0 C 12,9 C 19,3 km/h (3 Bft)
15.06.2024 07:35 14,3 C 80 % 1004,5 hPa 0,0 l/m 8,3 km/h (2 Bft) SW 225 10,9 C 13,2 C 20,9 km/h (4 Bft)
15.06.2024 07:30 14,2 C 82 % 1004,4 hPa 0,0 l/m 5,7 km/h (2 Bft) W 259 11,2 C 14,2 C 14,5 km/h (3 Bft)
15.06.2024 07:25 14,0 C 82 % 1004,4 hPa 0,0 l/m 6,1 km/h (2 Bft) W 267 11,0 C 14,0 C 17,7 km/h (3 Bft)
15.06.2024 07:20 13,9 C 84 % 1004,4 hPa 0,0 l/m 4,2 km/h (1 Bft) W-SW 240 11,2 C 13,9 C 9,7 km/h (2 Bft)
15.06.2024 07:15 13,7 C 83 % 1004,2 hPa 0,0 l/m 6,8 km/h (2 Bft) SW 236 10,9 C 13,5 C 16,1 km/h (3 Bft)
15.06.2024 07:10 13,7 C 84 % 1004,2 hPa 0,0 l/m 4,2 km/h (1 Bft) W 259 11,0 C 13,7 C 9,7 km/h (2 Bft)
15.06.2024 07:05 13,8 C 84 % 1004,0 hPa 0,0 l/m 5,6 km/h (2 Bft) W-SW 253 11,1 C 13,8 C 12,9 km/h (3 Bft)
15.06.2024 07:00 13,7 C 85 % 1004,0 hPa 0,0 l/m 6,0 km/h (2 Bft) W-SW 243 11,2 C 13,7 C 16,1 km/h (3 Bft)
15.06.2024 06:55 13,6 C 85 % 1004,1 hPa 0,0 l/m 8,3 km/h (2 Bft) W-SW 240 11,1 C 12,5 C 16,1 km/h (3 Bft)
15.06.2024 06:50 13,4 C 89 % 1004,0 hPa 0,0 l/m 6,7 km/h (2 Bft) W-SW 242 11,6 C 13,2 C 20,9 km/h (4 Bft)
15.06.2024 06:45 13,1 C 90 % 1003,8 hPa 0,0 l/m 3,5 km/h (1 Bft) S-SW 213 11,5 C 13,1 C 9,7 km/h (2 Bft)
15.06.2024 06:40 13,1 C 90 % 1003,7 hPa 0,0 l/m 0,8 km/h (0 Bft) SW 214 11,5 C 13,1 C 3,2 km/h (1 Bft)
15.06.2024 06:35 13,1 C 90 % 1003,7 hPa 0,0 l/m 0,7 km/h (0 Bft) SW 214 11,5 C 13,1 C 3,2 km/h (1 Bft)
15.06.2024 06:30 13,2 C 90 % 1003,8 hPa 0,0 l/m 1,1 km/h (1 Bft) SW 214 11,6 C 13,2 C 3,2 km/h (1 Bft)
15.06.2024 06:25 13,2 C 90 % 1003,6 hPa 0,0 l/m 1,1 km/h (1 Bft) SW 214 11,6 C 13,2 C 4,8 km/h (1 Bft)
15.06.2024 06:20 13,3 C 90 % 1003,4 hPa 0,2 l/m 0,4 km/h (0 Bft) SW 215 11,7 C 13,3 C 4,8 km/h (1 Bft)
15.06.2024 06:15 13,4 C 90 % 1003,4 hPa 0,0 l/m 0,6 km/h (0 Bft) SW 215 11,8 C 13,4 C 3,2 km/h (1 Bft)
15.06.2024 06:10 13,4 C 90 % 1003,4 hPa 0,0 l/m 0,7 km/h (0 Bft) SW 215 11,8 C 13,4 C 4,8 km/h (1 Bft)
15.06.2024 06:05 13,6 C 90 % 1003,5 hPa 0,0 l/m 1,5 km/h (1 Bft) SW 216 12,0 C 13,6 C 4,8 km/h (1 Bft)
15.06.2024 06:00 13,6 C 90 % 1003,6 hPa 0,0 l/m 1,7 km/h (1 Bft) S-SW 213 12,0 C 13,6 C 4,8 km/h (1 Bft)
15.06.2024 05:55 13,7 C 90 % 1003,4 hPa 0,0 l/m 3,0 km/h (1 Bft) S-SW 213 12,1 C 13,7 C 8,0 km/h (2 Bft)
15.06.2024 05:50 13,7 C 90 % 1003,3 hPa 0,0 l/m 2,6 km/h (1 Bft) S-SW 204 12,1 C 13,7 C 6,4 km/h (2 Bft)
15.06.2024 05:45 13,7 C 90 % 1003,3 hPa 0,0 l/m 3,0 km/h (1 Bft) S-SW 200 12,1 C 13,7 C 6,4 km/h (2 Bft)
15.06.2024 05:40 13,8 C 91 % 1003,1 hPa 0,0 l/m 3,0 km/h (1 Bft) S-SW 197 12,4 C 13,8 C 6,4 km/h (2 Bft)
15.06.2024 05:35 13,8 C 91 % 1003,1 hPa 0,0 l/m 2,7 km/h (1 Bft) S-SW 213 12,4 C 13,8 C 6,4 km/h (2 Bft)
15.06.2024 05:30 13,8 C 91 % 1003,1 hPa 0,0 l/m 2,5 km/h (1 Bft) SW 215 12,4 C 13,8 C 6,4 km/h (2 Bft)
15.06.2024 05:25 13,8 C 91 % 1003,1 hPa 0,0 l/m 2,4 km/h (1 Bft) SW 215 12,4 C 13,8 C 6,4 km/h (2 Bft)
15.06.2024 05:20 13,8 C 91 % 1003,1 hPa 0,0 l/m 3,1 km/h (1 Bft) S-SW 212 12,4 C 13,8 C 6,4 km/h (2 Bft)
15.06.2024 05:15 13,8 C 92 % 1003,0 hPa 0,0 l/m 1,8 km/h (1 Bft) SW 221 12,5 C 13,8 C 4,8 km/h (1 Bft)
15.06.2024 05:10 13,8 C 92 % 1003,0 hPa 0,0 l/m 0,8 km/h (0 Bft) SW 222 12,5 C 13,8 C 3,2 km/h (1 Bft)
15.06.2024 05:05 13,8 C 92 % 1002,9 hPa 0,0 l/m 0,0 km/h (0 Bft) SW 226 12,5 C 13,8 C 0,0 km/h (0 Bft)
15.06.2024 05:00 13,9 C 92 % 1002,9 hPa 0,0 l/m 0,0 km/h (0 Bft) SW 226 12,6 C 13,9 C 0,0 km/h (0 Bft)
15.06.2024 04:55 13,9 C 91 % 1002,9 hPa 0,0 l/m 0,0 km/h (0 Bft) SW 226 12,5 C 13,9 C 0,0 km/h (0 Bft)
15.06.2024 04:50 13,9 C 91 % 1002,8 hPa 0,2 l/m 0,0 km/h (0 Bft) SW 227 12,5 C 13,9 C 0,0 km/h (0 Bft)
15.06.2024 04:45 13,9 C 91 % 1002,7 hPa 0,0 l/m 0,0 km/h (0 Bft) SW 227 12,5 C 13,9 C 0,0 km/h (0 Bft)
15.06.2024 04:40 13,9 C 91 % 1002,7 hPa 0,0 l/m 0,0 km/h (0 Bft) SW 227 12,5 C 13,9 C 0,0 km/h (0 Bft)
15.06.2024 04:35 13,9 C 91 % 1002,5 hPa 0,0 l/m 0,0 km/h (0 Bft) SW 227 12,5 C 13,9 C 0,0 km/h (0 Bft)
15.06.2024 04:30 13,9 C 90 % 1002,5 hPa 0,0 l/m 0,0 km/h (0 Bft) SW 227 12,3 C 13,9 C 0,0 km/h (0 Bft)
15.06.2024 04:25 14,0 C 91 % 1002,6 hPa 0,0 l/m 0,4 km/h (0 Bft) SW 227 12,6 C 14,0 C 1,6 km/h (1 Bft)
15.06.2024 04:20 14,0 C 91 % 1002,6 hPa 0,0 l/m 1,6 km/h (1 Bft) SW 227 12,6 C 14,0 C 4,8 km/h (1 Bft)
15.06.2024 04:15 14,1 C 91 % 1002,9 hPa 0,0 l/m 1,5 km/h (1 Bft) SW 227 12,7 C 14,1 C 4,8 km/h (1 Bft)
15.06.2024 04:10 14,1 C 91 % 1002,8 hPa 0,0 l/m 0,5 km/h (0 Bft) SW 227 12,7 C 14,1 C 3,2 km/h (1 Bft)
15.06.2024 04:05 14,1 C 91 % 1002,8 hPa 0,0 l/m 0,3 km/h (0 Bft) SW 227 12,7 C 14,1 C 1,6 km/h (1 Bft)
15.06.2024 04:00 14,2 C 91 % 1003,0 hPa 0,0 l/m 1,8 km/h (1 Bft) SW 227 12,8 C 14,2 C 4,8 km/h (1 Bft)
15.06.2024 03:55 14,2 C 91 % 1003,2 hPa 0,0 l/m 2,7 km/h (1 Bft) SW 227 12,8 C 14,2 C 6,4 km/h (2 Bft)
15.06.2024 03:50 14,2 C 91 % 1003,3 hPa 0,2 l/m 3,3 km/h (1 Bft) SW 230 12,8 C 14,2 C 11,3 km/h (2 Bft)
15.06.2024 03:45 14,3 C 91 % 1003,4 hPa 0,0 l/m 4,0 km/h (1 Bft) W-SW 252 12,8 C 14,3 C 9,7 km/h (2 Bft)
15.06.2024 03:40 14,3 C 91 % 1003,5 hPa 0,0 l/m 4,5 km/h (1 Bft) SW 236 12,8 C 14,3 C 9,7 km/h (2 Bft)
15.06.2024 03:35 14,3 C 91 % 1003,7 hPa 0,0 l/m 6,4 km/h (2 Bft) W-SW 242 12,8 C 14,3 C 19,3 km/h (3 Bft)
15.06.2024 03:30 14,5 C 91 % 1003,6 hPa 0,0 l/m 6,7 km/h (2 Bft) W-SW 239 13,0 C 14,3 C 12,9 km/h (3 Bft)
15.06.2024 03:25 14,6 C 90 % 1003,4 hPa 0,0 l/m 5,8 km/h (2 Bft) W 269 13,0 C 14,6 C 12,9 km/h (3 Bft)
15.06.2024 03:20 14,7 C 90 % 1003,3 hPa 0,2 l/m 4,0 km/h (1 Bft) W 269 13,1 C 14,7 C 9,7 km/h (2 Bft)
15.06.2024 03:15 14,9 C 89 % 1003,5 hPa 0,0 l/m 5,2 km/h (1 Bft) W 260 13,1 C 14,9 C 11,3 km/h (2 Bft)
15.06.2024 03:10 15,2 C 88 % 1003,5 hPa 0,0 l/m 7,5 km/h (2 Bft) W 273 13,2 C 14,6 C 14,5 km/h (3 Bft)
15.06.2024 03:05 15,4 C 87 % 1003,4 hPa 0,0 l/m 8,9 km/h (2 Bft) W 271 13,2 C 14,1 C 17,7 km/h (3 Bft)
15.06.2024 03:00 15,8 C 87 % 1003,4 hPa 0,0 l/m 7,9 km/h (2 Bft) W-NW 290 13,6 C 15,0 C 14,5 km/h (3 Bft)
_ Min-Zeit 02:35 17:00 04:30 - 04:30 - - 18:40 09:00 04:30
Minimum _ 13,0 C 44 % 1002,5 hPa - 0,0 km/h (0 Bft) - - 7,1 C 10,2 C 0,0 km/h (0 Bft)
_ Max-Zeit 18:15 05:00 23:35 03:20 12:30 - - 03:00 17:55 10:25
Maximum _ 20,5 C 92 % 1009,6 hPa 0,2 l/m 18,6 km/h
W-SW (3 Bft)
- - 13,6 C 20,1 C 40,2 km/h
W (6 Bft)
Durchschnitt _ 16,2 C 68 % 1007,0 hPa #1,2 l/m 7,6 km/h (2 Bft) SW - 9,8 C 15,0 C 15,9 km/h (3 Bft)
www.klaudt.eu